• Join FlightAware (Why Join?)
  • Login
  • US Flag 
11:54AM EDT


 

Airport Tracker/Info


-or-


 

Live Flight TrackerFlight Track Log ✈ N680AN ✈ 02-May-2013 ✈ KMCO - KDFW

Flight Track Log - Related Links

Times and Time Zones

All times are in EDT time to prevent confusion due to time zone crossing. See the N680AN flight status page for this flight to view local times or setup timezone preferences in your user account.

Time Position Orientation Groundspeed Altitude Reporting Facility
EDT Latitude Longitude Course Direction KTS MPH feet Rate Location/Type
10:40AM 28.4167 -81.3167 270° West 169 194 800  Level Orlando TRACON
10:41AM 28.4000 -81.3333 221° Southwest 188 216 2,000 2,520 Climbing Orlando TRACON
10:42AM 28.3500 -81.3667 210° Southwest 264 304 4,700 2,760 Climbing Orlando TRACON
10:43AM 28.4167 -81.5898 270° West  Level FlightAware Approximate
10:43AM 28.3364 -81.4964 263° West 276 318 9,300  Level Jacksonville Center
10:44AM 28.4167 -81.7186 270° West  Level FlightAware Approximate
10:44AM 28.3311 -81.5861 266° West 276 318 11,200  Level Jacksonville Center
10:45AM 28.4167 -81.8474 270° West  Level FlightAware Approximate
10:45AM 28.3489 -81.6944 281° West 306 352 12,900  Level Jacksonville Center
10:46AM 28.4167 -81.9762 270° West  Level FlightAware Approximate
10:46AM 28.3667 -81.8097 280° West 346 398 15,100  Level Jacksonville Center
10:47AM 28.3883 -81.9275 282° West 373 429 17,200 1,860 Climbing Jacksonville Center
10:48AM 28.4100 -82.0478 282° West 387 445 18,900 1,680 Climbing Jacksonville Center
10:49AM 28.4339 -82.1772 282° West 406 467 20,600 1,680 Climbing Jacksonville Center
10:50AM 28.4617 -82.3069 284° West 420 483 22,300 1,620 Climbing Jacksonville Center
10:51AM 28.5039 -82.4344 291° West 425 489 23,900 1,740 Climbing Jacksonville Center
10:52AM 28.6086 -82.5189 325° Northwest 425 489 25,800 1,860 Climbing Jacksonville Center
10:53AM 28.7297 -82.6133 326° Northwest 451 519 27,700 1,740 Climbing Jacksonville Center
10:54AM 28.8406 -82.7031 325° Northwest 466 536 29,300 1,620 Climbing Jacksonville Center
10:55AM 28.9347 -82.7858 322° Northwest 474 545 31,000 1,800 Climbing Jacksonville Center
10:56AM 29.0472 -82.8758 325° Northwest 486 559 33,000 1,980 Climbing Jacksonville Center
10:57AM 29.1558 -82.9639 325° Northwest 486 559 35,000 1,500 Climbing Jacksonville Center
10:58AM 29.2603 -83.0519 324° Northwest 481 554 36,000 480 Climbing Jacksonville Center
10:59AM 29.3644 -83.1381 324° Northwest 476 548 36,000 360 Level Jacksonville Center
11:00AM 29.4664 -83.2217 324° Northwest 464 534 36,800 960 Climbing Jacksonville Center
11:01AM 29.5686 -83.3106 323° Northwest 459 528 38,000 600 Climbing Jacksonville Center
11:02AM 29.6725 -83.3969 324° Northwest 459 528 38,000  Level Jacksonville Center
11:03AM 29.7536 -83.5050 311° West 448 516 38,000  Level Jacksonville Center
11:04AM 29.8281 -83.6181 307° West 442 509 38,000  Level Jacksonville Center
11:05AM 29.9025 -83.7361 306° West 454 522 38,000  Level Jacksonville Center
11:06AM 29.9769 -83.8542 306° West 454 522 38,000  Level Jacksonville Center
11:07AM 30.0511 -83.9700 307° West 454 522 38,000  Level Jacksonville Center
11:08AM 30.1253 -84.0886 306° West 454 522 38,000  Level Jacksonville Center
11:09AM 30.1950 -84.2072 304° West 454 522 38,000  Level Jacksonville Center
11:10AM 30.2689 -84.3236 306° West 454 522 38,000  Level Jacksonville Center
11:11AM 30.3428 -84.4403 306° West 459 528 38,000  Level Jacksonville Center
11:12AM 30.4164 -84.5594 306° West 454 522 38,000  Level Jacksonville Center
11:13AM 30.4900 -84.6789 306° West 454 522 38,000  Level Jacksonville Center
11:14AM 30.5633 -84.7961 306° West 454 522 38,000  Level Jacksonville Center
11:15AM 30.6347 -84.9158 305° West 454 522 38,000  Level Jacksonville Center
11:16AM 30.7078 -85.0333 306° West 454 522 38,000  Level Jacksonville Center
11:17AM 30.7808 -85.1533 305° West 454 522 38,000  Level Jacksonville Center
11:18AM 30.8519 -85.2714 305° West 454 522 38,000  Level Jacksonville Center
11:19AM 30.9247 -85.3917 305° West 459 528 38,000  Level Jacksonville Center
11:20AM 30.9975 -85.5125 305° West 459 528 38,000  Level Jacksonville Center
11:21AM 31.0722 -85.6333 306° West 459 528 38,000  Level Jacksonville Center
11:22AM 31.1483 -85.7714 303° West 459 528 38,000  Level Jacksonville Center
11:23AM 31.2208 -85.8856 307° West 459 528 38,000  Level Jacksonville Center
11:25AM 31.3353 -86.0761 305° West 452 520 38,000  Level Atlanta Center
11:26AM 31.4064 -86.1994 304° West 452 520 38,000  Level Atlanta Center
11:27AM 31.4772 -86.3203 305° West 457 526 38,000  Level Atlanta Center
11:28AM 31.5500 -86.4417 305° West 457 526 38,000  Level Atlanta Center
11:29AM 31.6208 -86.5606 305° West 452 520 38,000  Level Atlanta Center
11:30AM 31.6933 -86.6844 305° West 457 526 38,000  Level Atlanta Center
11:31AM 31.7636 -86.8064 304° West 457 526 38,000  Level Atlanta Center
11:32AM 31.8361 -86.9258 306° West 457 526 38,000  Level Atlanta Center
11:33AM 31.9061 -87.0456 305° West 457 526 38,000  Level Atlanta Center
11:34AM 31.9761 -87.1678 304° West 457 526 38,000  Level Atlanta Center
11:35AM 32.0481 -87.2928 304° West 452 520 38,000  Level Atlanta Center
11:36AM 32.1239 -87.4206 305° West 452 520 38,000  Level Atlanta Center
11:37AM 32.1936 -87.5436 304° West 452 520 38,000  Level Atlanta Center
11:38AM 32.2650 -87.6692 304° West 452 520 38,000  Level Atlanta Center
11:40AM 32.4167 -87.9383 304° West 451 519 38,000  Level Memphis Center
11:41AM 32.4942 -88.0667 306° West 451 519 38,000  Level Memphis Center
11:42AM 32.5592 -88.1908 302° West 451 519 38,000  Level Memphis Center
11:43AM 32.6258 -88.3125 303° West 451 519 38,000  Level Memphis Center
11:44AM 32.6944 -88.4342 304° West 451 519 38,000  Level Memphis Center
11:45AM 32.7633 -88.5564 304° West 451 519 38,000  Level Memphis Center
11:46AM 32.8297 -88.6786 303° West 451 519 38,000  Level Memphis Center
11:47AM 32.8981 -88.8011 304° West 451 519 38,000  Level Memphis Center
11:48AM 32.9664 -88.9261 303° West 451 519 38,000  Level Memphis Center
11:49AM 33.0281 -89.0392 303° West 451 519 38,000  Level Memphis Center
11:50AM 33.0961 -89.1644 303° West 451 519 38,000  Level Memphis Center
11:51AM 33.1642 -89.2878 303° West 451 519 38,000  Level Memphis Center
11:52AM 33.2319 -89.4133 303° West 451 519 38,000  Level Memphis Center
11:53AM 33.2997 -89.5369 303° West 451 519 38,000  Level Memphis Center
11:54AM 33.3672 -89.6583 304° West 451 519 38,000  Level Memphis Center
11:55AM 33.4303 -89.7847 301° West 451 519 38,000  Level Memphis Center
11:56AM 33.4978 -89.9064 304° West 446 513 38,000  Level Memphis Center
11:57AM 33.5628 -90.0281 303° West 446 513 38,000  Level Memphis Center
11:58AM 33.6342 -90.1625 303° West 446 513 38,000  Level Memphis Center
11:59AM 33.6969 -90.2847 302° West 440 506 38,000  Level Memphis Center
12:00PM 33.7636 -90.4072 303° West 440 506 38,000  Level Memphis Center
12:01PM 33.8261 -90.5297 302° West 440 506 38,000  Level Memphis Center
12:02PM 33.8928 -90.6525 303° West 435 501 38,000  Level Memphis Center
12:03PM 33.9550 -90.7753 301° West 435 501 38,000  Level Memphis Center
12:04PM 34.0192 -90.9008 302° West 435 501 38,000  Level Memphis Center
12:05PM 34.0792 -91.0092 304° West 435 501 38,000  Level Memphis Center
12:06PM 34.1411 -91.1328 301° West 435 501 38,000  Level Memphis Center
12:07PM 34.2092 -91.2589 303° West 434 499 38,000  Level Memphis Center
12:08PM 34.2708 -91.3800 302° West 434 499 38,000  Level Memphis Center
12:09PM 34.3303 -91.4989 301° West 429 494 38,000  Level Memphis Center
12:10PM 34.4000 -91.6333 302° West 434 499 38,000  Level Memphis Center
12:11PM 34.4675 -91.7603 303° West 434 499 38,000  Level Memphis Center
12:12PM 34.5308 -91.8825 302° West 434 499 38,000  Level Memphis Center
12:13PM 34.5875 -92.0069 299° West 425 489 38,000  Level Memphis Center
12:14PM 34.6528 -92.1294 303° West 431 496 38,000  Level Memphis Center
12:15PM 34.6569 -92.2683 272° West 399 459 38,000  Level Memphis Center
12:16PM 34.6233 -92.4064 254° West 409 471 38,000  Level Memphis Center
12:17PM 34.5814 -92.5417 249° West 414 476 38,000  Level Memphis Center
12:18PM 34.5456 -92.6819 253° West 419 482 38,000  Level Memphis Center
12:19PM 34.5075 -92.8194 251° West 424 488 38,000  Level Memphis Center
12:20PM 34.4714 -92.9569 252° West 424 488 38,000  Level Memphis Center
12:21PM 34.4369 -93.0969 253° West 429 494 38,000  Level Memphis Center
12:22PM 34.3983 -93.2342 251° West 435 501 38,000  Level Memphis Center
12:23PM 34.3617 -93.3714 252° West 435 501 38,000  Level Memphis Center
12:24PM 34.3419 -93.4397 251° West 437 503 38,000  Level Fort Worth Center
12:25PM 34.3103 -93.5617 253° West 432 497 38,000  Level Fort Worth Center
12:26PM 34.2728 -93.7017 252° West 432 497 38,000  Level Fort Worth Center
12:27PM 34.2331 -93.8339 250° West 432 497 38,000  Level Fort Worth Center
12:28PM 34.1969 -93.9686 252° West 432 497 38,000  Level Fort Worth Center
12:29PM 34.1589 -94.1031 251° West 432 497 38,000  Level Fort Worth Center
12:30PM 34.1206 -94.2350 251° West 432 497 38,000  Level Fort Worth Center
12:31PM 34.0864 -94.3667 253° West 432 497 38,000 -300 Level Fort Worth Center
12:32PM 34.0478 -94.4983 251° West 427 491 37,400 -780 Descending Fort Worth Center
12:33PM 34.0089 -94.6247 250° West 422 486 36,500 -960 Descending Fort Worth Center
12:34PM 33.9700 -94.7614 251° West 422 486 35,500 -1,020 Descending Fort Worth Center
12:35PM 33.9311 -94.8978 251° West 427 491 34,500 -960 Descending Fort Worth Center
12:36PM 33.8942 -95.0339 252° West 427 491 33,600 -960 Descending Fort Worth Center
12:37PM 33.8508 -95.1750 250° West 438 504 32,600 -1,020 Descending Fort Worth Center
12:38PM 33.8075 -95.3161 250° West 443 510 31,600 -1,020 Descending Fort Worth Center
12:39PM 33.7658 -95.4619 251° West 448 516 30,600 -1,140 Descending Fort Worth Center
12:40PM 33.7200 -95.6031 249° West 453 521 29,400 -1,260 Descending Fort Worth Center
12:41PM 33.6844 -95.7386 253° West 447 514 28,100 -1,800 Descending Fort Worth Center
12:42PM 33.6422 -95.8739 249° West 447 514 25,800 -2,400 Descending Fort Worth Center
12:43PM 33.6042 -96.0044 251° West 429 494 23,400 -2,400 Descending Fort Worth Center
12:44PM 33.5617 -96.1422 250° West 412 474 21,000 -2,280 Descending Fort Worth Center
12:45PM 33.5231 -96.2447 246° West 397 457 18,900 -2,040 Descending Fort Worth Center
12:46PM 33.4425 -96.3456 226° Southwest 387 445 17,000 -1,860 Descending Fort Worth Center
12:47PM 33.3806 -96.4183 224° Southwest 364 419 15,200 -2,100 Descending Fort Worth Center
12:48PM 33.3081 -96.5061 225° Southwest 350 403 12,900 -2,100 Descending Fort Worth Center
12:49PM 33.2439 -96.5839 225° Southwest 334 384 11,100 -960 Descending Fort Worth Center
12:50PM 33.1942 -96.6464 226° Southwest 313 360 11,000 -60 Descending Fort Worth Center
12:51PM 33.0833 -96.7667 222° Southwest 291 335 11,000  Level Dallas / Fort Worth TRACON
12:53PM 33.0333 -96.8500 234° Southwest 294 338 11,000  Level Dallas / Fort Worth TRACON
12:54PM 32.9667 -96.9000 212° Southwest 249 287 11,000 -480 Level Dallas / Fort Worth TRACON
12:54PM 32.9000 -96.9000 180° South 260 299 10,200 -1,140 Descending Dallas / Fort Worth TRACON
12:56PM 32.7667 -96.9000 180° South 253 291 7,800 -1,320 Descending Dallas / Fort Worth TRACON
12:57PM 32.7000 -96.9000 180° South 242 278 6,400 -1,260 Descending Dallas / Fort Worth TRACON
12:59PM 32.6167 -96.9000 180° South 237 273 5,200 -720 Descending Dallas / Fort Worth TRACON
01:00PM 32.6000 -96.9667 253° West 209 241 5,000 -120 Descending Dallas / Fort Worth TRACON
01:01PM 32.6000 -97.0167 270° West 174 200 5,000  Level Dallas / Fort Worth TRACON
01:01PM 32.6500 -97.0333 344° North 169 194 5,000 -360 Level Dallas / Fort Worth TRACON
01:02PM 32.6833 -97.0167 23° Northeast 169 194 4,400 -600 Descending Dallas / Fort Worth TRACON